createdAt,value
2022-08-18T04:46:01.786Z,17.87
2022-08-18T04:47:02.762Z,17.90
2022-08-18T04:48:02.775Z,17.87
2022-08-18T04:49:02.746Z,17.90
2022-08-18T04:50:02.741Z,17.90
2022-08-18T04:51:02.721Z,17.90
2022-08-18T04:52:31.038Z,17.90
2022-08-18T04:53:02.727Z,17.92
2022-08-18T04:54:02.694Z,17.93
2022-08-18T04:55:02.680Z,17.93
2022-08-18T04:56:02.678Z,17.90
2022-08-18T04:57:02.662Z,17.95
2022-08-18T04:58:02.666Z,17.95
2022-08-18T04:59:02.638Z,17.92
2022-08-18T05:00:02.635Z,17.93
2022-08-18T05:01:02.697Z,17.95
2022-08-18T05:02:02.609Z,17.93
2022-08-18T05:03:02.608Z,17.93
2022-08-18T05:04:02.595Z,17.92
2022-08-18T05:05:02.576Z,17.90
2022-08-18T05:06:02.569Z,17.95
2022-08-18T05:07:02.555Z,17.96
2022-08-18T05:08:02.561Z,17.99
2022-08-18T05:09:02.535Z,17.99
2022-08-18T05:10:02.541Z,18.02
2022-08-18T05:11:04.322Z,18.03
2022-08-18T05:12:02.501Z,18.05
2022-08-18T05:13:02.500Z,18.07
2022-08-18T05:14:02.486Z,18.11
2022-08-18T05:15:02.469Z,18.12
2022-08-18T05:16:10.919Z,18.12
2022-08-18T05:17:02.454Z,18.10
2022-08-18T05:18:02.454Z,18.12
2022-08-18T05:19:03.049Z,18.18
2022-08-18T05:20:02.419Z,18.20
2022-08-18T05:21:02.406Z,18.21
2022-08-18T05:22:03.115Z,18.26
2022-08-18T05:23:02.407Z,18.27
2022-08-18T05:24:02.376Z,18.23
2022-08-18T05:25:02.359Z,18.20
2022-08-18T05:26:02.352Z,18.18
2022-08-18T05:27:02.347Z,18.26
2022-08-18T05:28:02.350Z,18.30
2022-08-18T05:29:18.145Z,18.25
2022-08-18T05:30:02.361Z,18.23
2022-08-18T05:31:02.296Z,18.27
2022-08-18T05:32:02.289Z,18.33
2022-08-18T05:33:02.289Z,18.39
2022-08-18T05:34:02.270Z,18.47
2022-08-18T05:35:02.253Z,18.48
2022-08-18T05:36:02.249Z,18.48
2022-08-18T05:37:02.238Z,18.51
2022-08-18T05:38:02.242Z,18.52
2022-08-18T05:39:02.217Z,18.57
2022-08-18T05:40:04.326Z,18.60
2022-08-18T05:41:02.202Z,18.60
2022-08-18T05:42:02.195Z,18.62
2022-08-18T05:43:02.185Z,18.66
2022-08-18T05:44:02.164Z,18.69
2022-08-18T05:45:02.152Z,18.69
2022-08-18T05:46:02.146Z,18.75
2022-08-18T05:47:02.135Z,18.82
2022-08-18T05:48:02.145Z,18.84
2022-08-18T05:49:02.112Z,18.80
2022-08-18T05:50:02.104Z,18.78
2022-08-18T05:51:02.089Z,18.81
2022-08-18T05:52:02.086Z,18.80
2022-08-18T05:53:02.160Z,18.78
2022-08-18T05:54:02.061Z,18.80
2022-08-18T05:55:02.053Z,18.80
2022-08-18T05:56:02.042Z,18.78
2022-08-18T05:57:02.029Z,18.76
2022-08-18T05:58:02.052Z,18.80
2022-08-18T05:59:02.030Z,18.80
2022-08-18T06:00:02.023Z,18.81
2022-08-18T06:01:02.014Z,18.81
2022-08-18T06:02:02.060Z,18.81
2022-08-18T06:03:02.095Z,18.81
2022-08-18T06:04:01.975Z,18.81
2022-08-18T06:05:01.958Z,18.84
2022-08-18T06:06:01.953Z,18.81
2022-08-18T06:07:02.026Z,18.76
2022-08-18T06:08:01.967Z,18.69
2022-08-18T06:09:01.936Z,18.70
2022-08-18T06:10:01.933Z,18.69
2022-08-18T06:11:01.942Z,18.65
2022-08-18T06:12:01.897Z,18.57
2022-08-18T06:13:01.964Z,18.62
2022-08-18T06:14:01.915Z,18.63
2022-08-18T06:15:06.254Z,18.60
2022-08-18T06:16:01.932Z,18.54
2022-08-18T06:17:01.837Z,18.47
2022-08-18T06:18:01.860Z,18.54
2022-08-18T06:19:01.942Z,18.63
2022-08-18T06:20:01.833Z,18.69
2022-08-18T06:21:01.819Z,18.66
2022-08-18T06:22:02.757Z,18.65
2022-08-18T06:23:01.776Z,18.67
2022-08-18T06:24:01.766Z,18.76
2022-08-18T06:25:01.834Z,18.84
2022-08-18T06:26:01.796Z,18.84
2022-08-18T06:27:01.752Z,18.78
2022-08-18T06:28:01.737Z,18.75
2022-08-18T06:29:01.737Z,18.78
2022-08-18T06:30:01.767Z,18.80
2022-08-18T06:31:01.735Z,18.90
2022-08-18T06:32:01.772Z,18.92
2022-08-18T06:33:01.685Z,18.88
2022-08-18T06:34:01.722Z,18.82
2022-08-18T06:35:01.694Z,18.78
2022-08-18T06:36:01.719Z,18.76
2022-08-18T06:37:01.681Z,18.81
2022-08-18T06:38:01.670Z,18.85
2022-08-18T06:39:01.690Z,18.85
2022-08-18T06:40:01.738Z,18.90
2022-08-18T06:41:01.618Z,18.95
2022-08-18T06:42:01.633Z,19.04
2022-08-18T06:43:02.132Z,19.13
2022-08-18T06:44:01.606Z,19.25
2022-08-18T06:45:01.593Z,19.37
2022-08-18T06:46:01.574Z,19.59
2022-08-18T06:47:01.584Z,19.54
2022-08-18T06:48:01.576Z,19.46
2022-08-18T06:49:01.549Z,19.41
2022-08-18T06:50:01.539Z,19.47
2022-08-18T06:51:01.524Z,19.61
2022-08-18T06:52:01.519Z,19.68
2022-08-18T06:53:01.505Z,19.80
2022-08-18T06:54:01.487Z,19.96
2022-08-18T06:55:01.515Z,20.11
2022-08-18T06:56:01.476Z,20.20
2022-08-18T06:57:01.461Z,20.21
2022-08-18T06:58:01.442Z,20.23
2022-08-18T06:59:01.453Z,20.06
2022-08-18T07:00:01.397Z,20.10
2022-08-18T07:01:01.535Z,19.92
2022-08-18T07:02:01.413Z,19.83
2022-08-18T07:03:01.381Z,19.86
2022-08-18T07:04:01.398Z,19.91
2022-08-18T07:05:01.375Z,19.98
2022-08-18T07:06:01.375Z,19.98
2022-08-18T07:07:01.318Z,19.96
2022-08-18T07:08:01.317Z,19.91
2022-08-18T07:09:01.331Z,19.88
2022-08-18T07:10:01.314Z,19.99
2022-08-18T07:11:01.272Z,19.91
2022-08-18T07:12:01.268Z,19.78
2022-08-18T07:13:01.268Z,19.78
2022-08-18T07:14:16.151Z,19.80
2022-08-18T07:15:01.288Z,19.83
2022-08-18T07:16:01.231Z,19.94
2022-08-18T07:17:01.222Z,19.92
2022-08-18T07:18:01.204Z,19.86
2022-08-18T07:19:01.199Z,19.77
2022-08-18T07:20:01.192Z,19.84
2022-08-18T07:21:01.166Z,19.87
2022-08-18T07:22:01.172Z,19.98
2022-08-18T07:23:01.161Z,20.02
2022-08-18T07:24:23.124Z,20.06
2022-08-18T07:25:05.076Z,20.18
2022-08-18T07:26:01.109Z,20.24
2022-08-18T07:27:01.099Z,20.17
2022-08-18T07:28:01.090Z,20.13
2022-08-18T07:29:01.106Z,20.08
2022-08-18T07:30:01.114Z,20.14
2022-08-18T07:31:16.370Z,20.10
2022-08-18T07:32:01.078Z,19.99
2022-08-18T07:33:01.037Z,19.92
2022-08-18T07:34:01.050Z,19.98
2022-08-18T07:35:01.048Z,19.96
2022-08-18T07:36:01.004Z,19.94
2022-08-18T07:37:01.000Z,19.94
2022-08-18T07:38:13.790Z,20.01
2022-08-18T07:39:00.981Z,20.06
2022-08-18T07:40:01.068Z,20.01
2022-08-18T07:41:00.975Z,19.98
2022-08-18T07:42:00.952Z,19.99
2022-08-18T07:43:02.371Z,19.98
2022-08-18T07:44:00.920Z,20.02
2022-08-18T07:45:00.926Z,19.98
2022-08-18T07:46:00.904Z,19.96
2022-08-18T07:47:00.906Z,19.98
2022-08-18T07:48:10.957Z,20.06
2022-08-18T07:49:00.886Z,20.20
2022-08-18T07:50:22.957Z,20.28
2022-08-18T07:51:05.286Z,20.21
2022-08-18T07:52:00.834Z,20.16
2022-08-18T07:53:00.843Z,20.14
2022-08-18T07:54:00.842Z,20.26
2022-08-18T07:55:00.821Z,20.29
2022-08-18T07:56:00.840Z,20.29
2022-08-18T07:57:00.793Z,20.33
2022-08-18T07:58:00.784Z,20.33
2022-08-18T07:59:00.777Z,20.36
2022-08-18T08:00:00.756Z,20.28
2022-08-18T08:01:00.916Z,20.38
2022-08-18T08:02:00.875Z,20.57
2022-08-18T08:03:00.730Z,20.72
2022-08-18T08:04:00.728Z,20.73
2022-08-18T08:05:00.765Z,20.80
2022-08-18T08:06:00.701Z,20.76
2022-08-18T08:07:23.295Z,20.74
2022-08-18T08:08:00.705Z,20.79
2022-08-18T08:09:00.668Z,20.91
2022-08-18T08:10:00.681Z,21.03
2022-08-18T08:11:00.648Z,21.24
2022-08-18T08:12:00.675Z,21.25
2022-08-18T08:13:08.808Z,21.34
2022-08-18T08:14:00.638Z,21.44
2022-08-18T08:15:00.648Z,21.47
2022-08-18T08:16:00.608Z,21.54
2022-08-18T08:17:00.584Z,21.69
2022-08-18T08:18:00.557Z,21.69
2022-08-18T08:19:00.590Z,21.71
2022-08-18T08:20:01.773Z,21.77
2022-08-18T08:21:00.564Z,21.80
2022-08-18T08:22:00.516Z,21.67
2022-08-18T08:23:00.502Z,21.53
2022-08-18T08:24:00.492Z,21.58
2022-08-18T08:25:00.487Z,21.90
2022-08-18T08:26:00.493Z,22.27
2022-08-18T08:27:00.473Z,22.17
2022-08-18T08:28:00.445Z,22.03
2022-08-18T08:29:00.461Z,21.94
2022-08-18T08:30:00.470Z,21.80
2022-08-18T08:31:19.090Z,21.44
2022-08-18T08:32:00.470Z,21.34
2022-08-18T08:33:00.443Z,21.34
2022-08-18T08:34:04.068Z,21.47
2022-08-18T08:35:00.424Z,21.50
2022-08-18T08:36:00.457Z,21.44
2022-08-18T08:37:00.412Z,21.49
2022-08-18T08:38:22.993Z,21.50
2022-08-18T08:39:00.376Z,21.59
2022-08-18T08:40:00.515Z,21.62
2022-08-18T08:41:00.444Z,21.72
2022-08-18T08:42:31.904Z,21.75
2022-08-18T08:43:00.327Z,21.74
2022-08-18T08:44:00.293Z,21.69
2022-08-18T08:45:00.523Z,21.75
2022-08-18T08:46:00.328Z,21.77
2022-08-18T08:47:00.313Z,21.83
2022-08-18T08:48:08.486Z,21.86
2022-08-18T08:49:00.285Z,21.79
2022-08-18T08:50:00.687Z,21.77
2022-08-18T08:51:00.262Z,21.62
2022-08-18T08:52:00.220Z,21.37
2022-08-18T08:53:00.206Z,21.14
2022-08-18T08:54:00.189Z,21.01
2022-08-18T08:55:00.216Z,21.01
2022-08-18T08:56:02.605Z,21.03
2022-08-18T08:57:00.207Z,21.09
2022-08-18T08:58:00.169Z,20.99
2022-08-18T08:59:00.138Z,20.85
2022-08-18T09:00:00.177Z,20.88
2022-08-18T09:01:00.123Z,20.85
2022-08-18T09:02:00.273Z,20.91
2022-08-18T09:03:00.105Z,21.03
2022-08-18T09:04:00.074Z,21.14
2022-08-18T09:05:08.871Z,21.25
2022-08-18T09:06:00.099Z,21.31
2022-08-18T09:07:00.041Z,21.37
2022-08-18T09:08:00.027Z,21.34
2022-08-18T09:09:00.019Z,21.29
2022-08-18T09:10:00.012Z,21.31
2022-08-18T09:11:00.008Z,21.29
2022-08-18T09:11:59.995Z,21.38
2022-08-18T09:12:59.976Z,21.46
2022-08-18T09:13:59.962Z,21.43
2022-08-18T09:14:59.965Z,21.50
2022-08-18T09:15:59.973Z,21.49
2022-08-18T09:16:59.930Z,21.59
2022-08-18T09:17:59.936Z,21.50
2022-08-18T09:18:59.913Z,21.62
2022-08-18T09:19:59.901Z,21.75
2022-08-18T09:20:59.902Z,21.84
2022-08-18T09:21:59.880Z,22.03
2022-08-18T09:22:59.865Z,22.27
2022-08-18T09:23:59.867Z,22.49
2022-08-18T09:24:59.849Z,22.64
2022-08-18T09:25:59.856Z,22.28
2022-08-18T09:26:59.825Z,22.25
2022-08-18T09:28:10.807Z,22.35
2022-08-18T09:28:59.815Z,22.28
2022-08-18T09:29:59.799Z,22.09
2022-08-18T09:30:59.804Z,22.05
2022-08-18T09:31:59.777Z,21.99
2022-08-18T09:32:59.760Z,22.09
2022-08-18T13:04:55.712Z,22.06
2022-08-18T13:05:00.884Z,25.06
2022-08-18T13:06:00.826Z,25.18
2022-08-18T13:07:04.701Z,25.35
2022-08-18T13:08:00.833Z,25.40
2022-08-18T13:09:00.954Z,25.30
2022-08-18T13:10:00.771Z,25.14
2022-08-18T13:11:14.640Z,25.03
2022-08-18T13:12:00.770Z,24.62
2022-08-18T13:13:00.775Z,24.40
2022-08-18T13:14:00.746Z,24.39
2022-08-18T13:15:00.750Z,24.21
2022-08-18T13:16:01.568Z,24.22
2022-08-18T13:17:00.714Z,24.30
2022-08-18T13:18:00.722Z,24.32
2022-08-18T13:19:00.702Z,24.35
2022-08-18T13:20:00.977Z,24.35
2022-08-18T13:21:00.676Z,24.49
2022-08-18T13:22:00.663Z,24.62
2022-08-18T13:23:00.668Z,24.73
2022-08-18T13:24:00.644Z,24.69
2022-08-18T13:25:00.636Z,24.65
2022-08-18T13:26:01.901Z,24.49
2022-08-18T13:27:00.670Z,24.61
2022-08-18T13:28:00.970Z,24.47
2022-08-18T13:29:00.613Z,24.37
2022-08-18T13:30:00.581Z,24.45
2022-08-18T13:31:00.575Z,24.45
2022-08-18T13:32:00.638Z,24.58
2022-08-18T13:33:05.344Z,24.88
2022-08-18T13:34:03.753Z,25.13
2022-08-18T13:35:02.632Z,25.20
2022-08-18T13:36:00.520Z,24.99
2022-08-18T13:37:00.509Z,25.24
2022-08-18T13:38:00.492Z,25.60
2022-08-18T13:39:00.501Z,25.67
2022-08-18T13:40:02.066Z,25.91
2022-08-18T13:41:00.471Z,26.09
2022-08-18T13:42:00.891Z,26.05
2022-08-18T13:43:00.448Z,26.07
2022-08-18T13:44:00.443Z,26.17
2022-08-18T13:45:24.861Z,26.25
2022-08-18T13:46:01.007Z,26.43
2022-08-18T13:47:00.402Z,26.23
2022-08-18T13:48:00.391Z,26.52
2022-08-18T13:49:00.396Z,26.33
2022-08-18T13:50:00.376Z,26.25
2022-08-18T13:51:01.236Z,26.39
2022-08-18T13:52:01.120Z,26.72
2022-08-18T13:53:00.449Z,27.09
2022-08-18T13:54:26.453Z,27.40
2022-08-18T13:55:00.466Z,27.69
2022-08-18T13:56:00.332Z,27.49
2022-08-18T13:57:00.308Z,27.04
2022-08-18T13:58:00.592Z,26.77
2022-08-18T13:59:00.303Z,26.13
2022-08-18T14:00:00.272Z,25.75
2022-08-18T14:02:00.317Z,25.95
2022-08-18T14:03:00.256Z,25.79
2022-08-18T14:04:00.249Z,25.83
2022-08-18T14:05:00.242Z,25.98
2022-08-18T14:06:01.685Z,26.01
2022-08-18T14:07:03.073Z,25.97
2022-08-18T14:08:00.203Z,25.94
2022-08-18T14:09:00.204Z,25.85
2022-08-18T14:10:04.321Z,25.76
2022-08-18T14:11:00.170Z,25.75
2022-08-18T14:12:00.155Z,25.69
2022-08-18T14:13:00.153Z,25.83
2022-08-18T14:14:00.161Z,25.97
2022-08-18T14:15:00.147Z,26.15
2022-08-18T14:16:00.112Z,26.05
2022-08-18T14:17:00.113Z,25.73
2022-08-18T14:18:00.106Z,25.92
2022-08-18T14:19:00.115Z,26.09
2022-08-18T14:20:00.097Z,26.18
2022-08-18T14:21:00.081Z,26.37
2022-08-18T14:22:00.067Z,26.54
2022-08-18T14:23:00.056Z,26.58
2022-08-18T14:24:00.069Z,26.73
2022-08-18T14:25:00.446Z,26.60
2022-08-18T14:26:00.260Z,26.60
2022-08-18T14:27:00.013Z,26.65
2022-08-18T14:28:00.000Z,26.72
2022-08-18T14:29:00.005Z,26.40
2022-08-18T14:29:59.986Z,26.29
2022-08-18T14:30:59.971Z,26.39
2022-08-18T14:31:59.959Z,26.35
2022-08-18T14:33:00.210Z,26.35
2022-08-18T14:34:03.894Z,26.32
2022-08-18T14:35:01.066Z,26.21
2022-08-18T14:36:05.852Z,25.90
2022-08-18T14:36:59.936Z,25.83
2022-08-18T14:37:59.904Z,25.73
2022-08-18T14:38:59.924Z,25.65
2022-08-18T14:39:59.911Z,25.60
2022-08-18T14:40:59.880Z,25.45
2022-08-18T14:41:59.866Z,25.35
2022-08-18T14:42:59.862Z,25.39
2022-08-18T14:44:12.366Z,25.50
2022-08-18T14:45:17.349Z,25.60
2022-08-18T14:45:59.803Z,25.60
2022-08-18T14:46:59.794Z,25.73
2022-08-18T14:47:59.781Z,25.77
2022-08-18T14:48:59.776Z,25.83
2022-08-18T14:49:59.820Z,25.87
2022-08-18T14:50:59.756Z,25.82
2022-08-18T14:51:59.739Z,25.75
2022-08-18T14:52:59.734Z,25.65
2022-08-18T14:53:59.719Z,25.60
2022-08-18T14:54:59.747Z,25.62
2022-08-18T14:55:59.691Z,25.67
2022-08-18T14:56:59.693Z,25.77
2022-08-18T14:57:59.827Z,25.88
2022-08-18T14:58:59.669Z,25.94
2022-08-18T14:59:59.670Z,25.95
2022-08-18T15:00:59.659Z,25.98
2022-08-18T15:01:59.637Z,26.10
2022-08-18T15:03:00.122Z,25.87
2022-08-18T15:03:59.613Z,25.76
2022-08-18T15:04:59.625Z,25.73
2022-08-18T15:05:59.597Z,25.55
2022-08-18T15:06:59.588Z,25.61
2022-08-18T15:07:59.574Z,25.69
2022-08-18T15:08:59.582Z,25.55
2022-08-18T15:10:14.307Z,25.39
2022-08-18T15:10:59.551Z,25.42
2022-08-18T15:11:59.533Z,25.50
2022-08-18T15:12:59.528Z,25.57
2022-08-18T15:13:59.515Z,25.64
2022-08-18T15:14:59.518Z,25.58
2022-08-18T15:16:02.276Z,25.64
2022-08-18T15:16:59.485Z,25.61
2022-08-18T15:17:59.477Z,25.64
2022-08-18T15:18:59.463Z,25.67
2022-08-18T15:20:01.346Z,25.67
2022-08-18T15:20:59.445Z,25.67
2022-08-18T15:21:59.432Z,25.64
2022-08-18T15:22:59.425Z,25.61
2022-08-18T15:23:59.412Z,25.60
2022-08-18T15:24:59.431Z,25.55
2022-08-18T15:25:59.392Z,25.52
2022-08-18T15:27:05.487Z,25.58
2022-08-18T15:27:59.379Z,25.60
2022-08-18T15:29:00.274Z,25.64
2022-08-18T15:29:59.366Z,25.67
2022-08-18T15:32:05.635Z,25.51
2022-08-18T15:32:59.337Z,25.52
2022-08-18T15:33:59.338Z,25.38
2022-08-18T15:34:59.323Z,25.23
2022-08-18T15:35:59.298Z,25.27
2022-08-18T15:37:06.030Z,25.35
2022-08-18T15:37:59.286Z,25.42
2022-08-18T15:38:59.302Z,25.42
2022-08-18T15:39:59.360Z,25.42
2022-08-18T15:40:59.256Z,25.40
2022-08-18T15:41:59.887Z,25.38
2022-08-18T15:42:59.232Z,25.39
2022-08-18T15:43:59.218Z,25.40
2022-08-18T15:44:59.223Z,25.42
2022-08-18T15:45:59.205Z,25.43
2022-08-18T15:46:59.199Z,25.51
2022-08-18T15:47:59.177Z,25.58
2022-08-18T15:48:59.173Z,25.52
2022-08-18T15:49:59.170Z,25.39
2022-08-18T15:51:09.251Z,25.30
2022-08-18T15:51:59.145Z,25.38
2022-08-18T15:52:59.134Z,25.38
2022-08-18T15:53:59.119Z,25.38
2022-08-18T15:55:02.171Z,25.43
2022-08-18T15:56:04.290Z,25.46
2022-08-18T15:56:59.111Z,25.51
2022-08-18T15:57:59.178Z,25.52
2022-08-18T15:59:00.628Z,25.54
2022-08-18T15:59:59.078Z,25.47
2022-08-18T16:00:59.158Z,25.51
2022-08-18T16:01:59.094Z,25.55
2022-08-18T16:02:59.041Z,25.54
2022-08-18T16:03:59.058Z,25.46
2022-08-18T16:05:01.017Z,25.39
2022-08-18T16:05:59.021Z,25.32
2022-08-18T16:06:59.003Z,25.33
2022-08-18T16:07:58.993Z,25.38
2022-08-18T16:08:58.987Z,25.39
2022-08-18T16:09:58.983Z,25.24
2022-08-18T16:10:58.969Z,25.14
2022-08-18T16:12:00.506Z,25.18
2022-08-18T16:12:58.944Z,25.21
2022-08-18T16:13:59.184Z,25.24
2022-08-18T16:14:58.993Z,25.23
2022-08-18T16:15:58.919Z,25.21
2022-08-18T16:17:00.221Z,25.24
2022-08-18T16:17:58.891Z,25.30
2022-08-18T16:18:58.892Z,25.28
2022-08-18T16:19:59.013Z,25.32
2022-08-18T16:20:58.888Z,25.35
2022-08-18T16:21:58.855Z,25.32
2022-08-18T16:22:58.857Z,25.35
2022-08-18T16:23:58.842Z,25.38
2022-08-18T16:24:58.844Z,25.40
2022-08-18T16:25:58.831Z,25.40
2022-08-18T16:26:58.815Z,25.36
2022-08-18T16:27:58.806Z,25.24
2022-08-18T16:29:01.660Z,25.25
2022-08-18T16:29:58.776Z,25.24
2022-08-18T16:30:58.787Z,25.25
2022-08-18T16:31:58.771Z,25.27
2022-08-18T16:32:58.755Z,25.36
2022-08-18T16:33:58.743Z,25.43
2022-08-18T16:34:58.737Z,25.52
2022-08-18T16:35:58.743Z,25.57
2022-08-18T16:36:58.717Z,25.55
2022-08-18T16:37:58.727Z,25.61
2022-08-18T16:38:58.808Z,25.52
2022-08-18T16:39:58.774Z,25.55
2022-08-18T16:40:58.693Z,25.58
2022-08-18T16:41:58.664Z,25.57
2022-08-18T16:42:58.661Z,25.52
2022-08-18T16:43:58.649Z,25.51
2022-08-18T16:44:58.643Z,25.58
2022-08-18T16:45:58.662Z,25.65
2022-08-18T16:46:58.637Z,25.60
2022-08-18T16:47:58.635Z,25.62
2022-08-18T16:48:58.617Z,25.52
2022-08-18T16:49:58.964Z,25.50
2022-08-18T16:50:58.593Z,25.43
2022-08-18T16:51:58.572Z,25.45
2022-08-18T16:52:58.576Z,25.50
2022-08-18T16:53:58.545Z,25.52
2022-08-18T16:54:58.546Z,25.55
2022-08-18T16:55:58.547Z,25.60
2022-08-18T16:56:58.519Z,25.62
2022-08-18T16:57:58.515Z,25.67
2022-08-18T16:58:58.511Z,25.64
2022-08-18T16:59:58.493Z,25.64
2022-08-18T17:00:58.492Z,25.58
2022-08-18T17:01:58.577Z,25.52
2022-08-18T17:02:58.460Z,25.55
2022-08-18T17:03:58.458Z,25.52
2022-08-18T17:04:58.453Z,25.50
2022-08-18T17:05:58.448Z,25.43
2022-08-18T17:06:58.417Z,25.39
2022-08-18T17:07:58.412Z,25.38
2022-08-18T17:09:01.821Z,25.38
2022-08-18T17:09:58.399Z,25.36
2022-08-18T17:10:58.395Z,25.38
2022-08-18T17:11:58.378Z,25.39
2022-08-18T17:12:58.359Z,25.35
2022-08-18T17:13:58.356Z,25.21
2022-08-18T17:14:58.339Z,25.17
2022-08-18T17:15:58.336Z,25.15
2022-08-18T17:16:58.343Z,25.14
2022-08-18T17:17:58.317Z,25.15
2022-08-18T17:18:58.306Z,25.18
2022-08-18T17:19:58.298Z,25.17
2022-08-18T17:20:58.289Z,25.18
2022-08-18T17:21:58.288Z,25.21
2022-08-18T17:22:58.265Z,25.23
2022-08-18T17:23:58.259Z,25.23
2022-08-18T17:24:58.246Z,25.27
2022-08-18T17:25:58.242Z,25.23
2022-08-18T17:26:58.242Z,25.17
2022-08-18T17:27:58.220Z,25.08
2022-08-18T17:28:58.206Z,25.10
2022-08-18T17:29:58.206Z,25.05
2022-08-18T17:30:58.186Z,25.06
2022-08-18T17:31:58.189Z,25.02
2022-08-18T17:33:01.213Z,25.10
2022-08-18T17:33:58.162Z,25.10
2022-08-18T17:34:58.159Z,25.09
2022-08-18T17:35:58.137Z,25.10
2022-08-18T17:36:58.136Z,25.15
2022-08-18T17:37:58.121Z,25.13
2022-08-18T17:38:58.117Z,25.13
2022-08-18T17:39:58.125Z,25.17
2022-08-18T17:40:58.082Z,25.13
2022-08-18T17:41:58.092Z,25.08
2022-08-18T17:42:58.067Z,25.10
2022-08-18T17:43:59.988Z,25.09
2022-08-18T17:44:58.041Z,25.10
2022-08-18T17:45:58.048Z,25.13
2022-08-18T17:46:58.038Z,25.17
2022-08-18T17:47:58.022Z,25.21
2022-08-18T17:48:58.027Z,25.23
2022-08-18T17:50:26.735Z,25.24
2022-08-18T17:50:57.983Z,25.25
2022-08-18T17:51:57.993Z,25.27
2022-08-18T17:52:57.964Z,25.28
2022-08-18T17:53:57.952Z,25.25
2022-08-18T17:54:57.962Z,25.27
2022-08-18T17:55:57.934Z,25.32
2022-08-18T17:56:57.935Z,25.30
2022-08-18T17:57:58.604Z,25.25
2022-08-18T17:58:57.897Z,25.20
2022-08-18T17:59:57.890Z,25.18
2022-08-18T18:00:57.878Z,25.09
2022-08-18T18:01:57.886Z,25.06
2022-08-18T18:02:57.863Z,25.06
2022-08-18T18:03:57.851Z,25.05
2022-08-18T18:04:57.835Z,24.99
2022-08-18T18:05:57.935Z,24.93
2022-08-18T18:06:57.833Z,24.90
2022-08-18T18:07:57.811Z,24.90
2022-08-18T18:08:57.797Z,24.95
2022-08-18T18:09:57.802Z,24.96
2022-08-18T18:11:04.839Z,24.90
2022-08-18T18:11:57.786Z,24.84
2022-08-18T18:12:59.158Z,24.81
2022-08-18T18:13:57.745Z,24.78
2022-08-18T18:14:57.728Z,24.77
2022-08-18T18:15:57.725Z,24.76
2022-08-18T18:16:57.728Z,24.73
2022-08-18T18:17:57.702Z,24.71
2022-08-18T18:19:01.097Z,24.58
2022-08-18T18:19:57.679Z,24.57
2022-08-18T18:20:57.666Z,24.52
2022-08-18T18:22:01.699Z,24.49
2022-08-18T18:22:57.650Z,24.46
2022-08-18T18:23:59.526Z,24.43
2022-08-18T18:24:57.626Z,24.43
2022-08-18T18:25:57.620Z,24.39
2022-08-18T18:26:57.617Z,24.37
2022-08-18T18:27:57.596Z,24.35
2022-08-18T18:28:57.583Z,24.30
2022-08-18T18:29:57.576Z,24.28
2022-08-18T18:30:57.559Z,24.24
2022-08-18T18:31:58.480Z,24.20
2022-08-18T18:32:59.542Z,24.15
2022-08-18T18:33:57.533Z,24.12
2022-08-18T18:34:57.525Z,24.10
2022-08-18T18:35:57.514Z,24.08
2022-08-18T18:36:57.517Z,24.03
2022-08-18T18:37:57.499Z,23.98
2022-08-18T18:38:57.477Z,23.93
2022-08-18T18:39:57.578Z,23.85
2022-08-18T18:40:57.463Z,23.84
2022-08-18T18:41:57.465Z,23.84
2022-08-18T18:42:57.436Z,23.80
2022-08-18T18:43:57.432Z,23.75
2022-08-18T18:44:57.414Z,23.72
2022-08-18T18:45:57.409Z,23.69
2022-08-18T18:47:01.282Z,23.66
2022-08-18T18:47:57.395Z,23.65
2022-08-18T18:48:57.371Z,23.57
2022-08-18T18:49:57.366Z,23.53
2022-08-18T18:50:59.947Z,23.43
2022-08-18T18:51:57.354Z,23.39
2022-08-18T18:52:57.348Z,23.33
2022-08-18T18:53:57.325Z,23.27
2022-08-18T18:54:57.308Z,23.22
2022-08-18T18:55:57.303Z,23.19
2022-08-18T18:56:57.294Z,23.22
2022-08-18T18:57:57.299Z,23.20
2022-08-18T18:58:57.268Z,23.20
2022-08-18T19:00:57.250Z,23.12
2022-08-18T19:01:57.230Z,23.10
2022-08-18T19:02:57.242Z,23.10
2022-08-18T19:03:57.216Z,23.07
2022-08-18T19:04:57.207Z,23.09
2022-08-18T19:05:57.202Z,23.09
2022-08-18T19:06:57.184Z,23.05
2022-08-18T19:07:57.189Z,23.04
2022-08-18T19:08:57.163Z,23.02
2022-08-18T19:09:57.159Z,22.98
2022-08-18T19:10:57.140Z,22.97
2022-08-18T19:11:57.143Z,22.95
2022-08-18T19:12:57.136Z,22.90
2022-08-18T19:13:57.113Z,22.83
2022-08-18T19:15:00.055Z,22.82
2022-08-18T19:15:57.094Z,22.77
2022-08-18T19:16:57.082Z,22.77
2022-08-18T19:17:57.084Z,22.73
2022-08-18T19:19:35.102Z,22.68
2022-08-18T19:19:57.061Z,22.64
2022-08-18T19:22:01.787Z,22.61
2022-08-18T19:22:10.589Z,22.57
2022-08-18T19:22:57.031Z,22.57
2022-08-18T19:23:57.007Z,22.54
2022-08-18T19:24:56.995Z,22.51
2022-08-18T19:25:56.987Z,22.49
2022-08-18T19:26:56.975Z,22.42
2022-08-18T19:27:56.981Z,22.39
2022-08-18T19:29:12.652Z,22.33
2022-08-18T19:29:56.960Z,22.31
2022-08-18T19:30:56.933Z,22.24
2022-08-18T19:31:56.942Z,22.18
2022-08-18T19:32:56.932Z,22.14
2022-08-18T19:33:56.918Z,22.12
2022-08-18T19:34:56.901Z,22.09
2022-08-18T19:35:58.769Z,22.09
2022-08-18T19:36:57.019Z,22.06
2022-08-18T19:37:56.882Z,22.02
2022-08-18T19:38:56.853Z,22.00
2022-08-18T19:39:56.903Z,21.94
2022-08-18T19:40:56.829Z,21.86
2022-08-18T19:41:56.833Z,21.82
2022-08-18T19:42:56.823Z,21.75
2022-08-18T19:43:56.804Z,21.69
2022-08-18T19:45:15.252Z,21.64
2022-08-18T19:45:56.788Z,21.64
2022-08-18T19:46:56.762Z,21.61
2022-08-18T19:47:56.779Z,21.61
2022-08-18T19:48:56.746Z,21.62
2022-08-18T19:49:56.734Z,21.59
2022-08-18T19:50:56.725Z,21.58
2022-08-18T19:51:56.717Z,21.56
2022-08-18T19:52:56.849Z,21.58
2022-08-18T19:53:56.704Z,21.54
2022-08-18T19:54:56.680Z,21.54
2022-08-18T19:55:56.678Z,21.59
2022-08-18T19:56:56.684Z,21.61
2022-08-18T19:57:56.723Z,21.56
2022-08-18T19:59:15.699Z,21.56
2022-08-18T19:59:56.693Z,21.52
2022-08-18T20:00:56.705Z,21.47
2022-08-18T20:01:56.619Z,21.40
2022-08-18T20:02:56.618Z,21.40
2022-08-18T20:03:56.599Z,21.37
2022-08-18T20:04:56.594Z,21.28
2022-08-18T20:05:56.571Z,21.24
2022-08-18T20:06:56.555Z,21.16
2022-08-18T20:07:56.572Z,21.14
2022-08-18T20:08:56.542Z,21.14
2022-08-18T20:09:56.536Z,21.12
2022-08-18T20:10:56.515Z,21.06
2022-08-18T20:11:56.509Z,21.03
2022-08-18T20:12:56.511Z,20.97
2022-08-18T20:13:56.490Z,20.92
2022-08-18T20:14:56.472Z,20.85
2022-08-18T20:15:57.557Z,20.77
2022-08-18T20:16:56.460Z,20.70
2022-08-18T20:17:57.016Z,20.64
2022-08-18T20:18:56.436Z,20.57
2022-08-18T20:19:56.427Z,20.55
2022-08-18T20:20:56.414Z,20.51
2022-08-18T20:21:56.407Z,20.48
2022-08-18T20:22:57.376Z,20.42
2022-08-18T20:23:56.386Z,20.42
2022-08-18T20:24:56.373Z,20.38
2022-08-18T20:25:56.367Z,20.35
2022-08-18T20:26:56.351Z,20.36
2022-08-18T20:27:56.360Z,20.38
2022-08-18T20:28:56.335Z,20.39
2022-08-18T20:29:56.326Z,20.35
2022-08-18T20:30:56.332Z,20.36
2022-08-18T20:31:56.305Z,20.38
2022-08-18T20:32:56.299Z,20.35
2022-08-18T20:33:56.302Z,20.33
2022-08-18T20:34:56.267Z,20.32
2022-08-18T20:35:56.261Z,20.29
2022-08-18T20:36:56.244Z,20.29
2022-08-18T20:37:56.253Z,20.23
2022-08-18T20:38:56.227Z,20.20
2022-08-18T20:39:56.273Z,20.17
2022-08-18T20:40:56.209Z,20.13
2022-08-18T20:41:56.197Z,20.14
2022-08-18T20:43:07.307Z,20.16
2022-08-18T20:43:56.183Z,20.13
2022-08-18T20:44:56.165Z,20.13
2022-08-18T20:45:56.157Z,20.11
2022-08-18T20:46:56.143Z,20.13
2022-08-18T20:47:56.148Z,20.11
2022-08-18T20:48:56.120Z,20.06
2022-08-18T20:49:56.117Z,20.01
2022-08-18T20:50:56.104Z,19.98
2022-08-18T20:51:56.094Z,19.98
2022-08-18T20:52:56.095Z,19.95
2022-08-18T20:53:56.076Z,19.92
2022-08-18T20:54:57.432Z,19.87
2022-08-18T20:55:56.056Z,19.87
2022-08-18T20:56:56.037Z,19.84
2022-08-18T20:57:56.046Z,19.81
2022-08-18T20:58:56.017Z,19.80
2022-08-18T20:59:56.010Z,19.78
2022-08-18T21:00:56.102Z,19.77
2022-08-18T21:01:55.990Z,19.77
2022-08-18T21:02:55.989Z,19.74
2022-08-18T21:03:59.466Z,19.74
2022-08-18T21:04:55.961Z,19.73
2022-08-18T21:05:55.947Z,19.68
2022-08-18T21:06:55.935Z,19.66
2022-08-18T21:07:55.940Z,19.63
2022-08-18T21:08:55.916Z,19.62
2022-08-18T21:09:55.908Z,19.61
2022-08-18T21:10:55.889Z,19.59